createdAt,value
2022-07-26T00:00:22.538Z,18.10
2022-07-26T00:02:50.801Z,18.00
2022-07-26T00:05:19.058Z,18.00
2022-07-26T00:07:47.312Z,18.10
2022-07-26T00:10:16.452Z,18.10
2022-07-26T00:12:45.884Z,18.20
2022-07-26T00:15:13.976Z,18.10
2022-07-26T00:17:42.159Z,18.10
2022-07-26T00:20:10.950Z,18.20
2022-07-26T00:22:39.471Z,18.20
2022-07-26T00:25:09.903Z,18.20
2022-07-26T00:27:38.178Z,18.20
2022-07-26T00:30:11.110Z,18.10
2022-07-26T00:32:39.748Z,18.20
2022-07-26T00:35:08.299Z,18.10
2022-07-26T00:37:36.373Z,18.20
2022-07-26T00:40:04.925Z,18.20
2022-07-26T00:42:33.178Z,18.20
2022-07-26T00:45:01.956Z,18.20
2022-07-26T00:47:31.374Z,18.20
2022-07-26T00:49:59.534Z,18.20
2022-07-26T00:52:27.740Z,18.20
2022-07-26T00:54:56.263Z,18.20
2022-07-26T00:57:25.173Z,18.20
2022-07-26T00:59:53.482Z,18.30
2022-07-26T01:02:22.239Z,18.30
2022-07-26T01:04:51.785Z,18.30
2022-07-26T01:07:20.205Z,18.30
2022-07-26T01:09:48.295Z,18.30
2022-07-26T01:12:16.553Z,18.30
2022-07-26T01:14:45.295Z,18.30
2022-07-26T01:17:13.991Z,18.30
2022-07-26T01:19:42.592Z,18.30
2022-07-26T01:22:14.610Z,18.20
2022-07-26T01:24:43.683Z,18.30
2022-07-26T01:27:11.734Z,18.30
2022-07-26T01:29:40.024Z,18.20
2022-07-26T01:32:09.466Z,18.30
2022-07-26T01:34:37.532Z,18.20
2022-07-26T01:37:06.256Z,18.30
2022-07-26T01:39:35.855Z,18.20
2022-07-26T01:42:04.065Z,18.20
2022-07-26T01:44:32.240Z,18.20
2022-07-26T01:47:00.529Z,18.20
2022-07-26T01:49:28.571Z,18.30
2022-07-26T01:51:56.748Z,18.20
2022-07-26T01:54:24.837Z,18.20
2022-07-26T01:56:54.254Z,18.20
2022-07-26T01:59:22.446Z,18.20
2022-07-26T02:01:50.567Z,18.20
2022-07-26T02:04:32.632Z,18.20
2022-07-26T02:07:00.924Z,18.20
2022-07-26T02:09:38.042Z,18.20
2022-07-26T02:12:10.041Z,18.20
2022-07-26T02:14:38.096Z,18.20
2022-07-26T02:17:06.145Z,18.10
2022-07-26T02:19:34.467Z,18.20
2022-07-26T02:22:02.758Z,18.20
2022-07-26T02:24:30.990Z,18.20
2022-07-26T02:27:00.316Z,18.10
2022-07-26T02:29:29.926Z,18.10
2022-07-26T02:31:58.760Z,18.10
2022-07-26T02:34:28.971Z,18.10
2022-07-26T02:36:59.390Z,18.10
2022-07-26T02:39:28.639Z,18.10
2022-07-26T02:41:57.855Z,18.10
2022-07-26T02:44:26.420Z,18.10
2022-07-26T02:46:56.404Z,18.10
2022-07-26T02:49:24.502Z,18.00
2022-07-26T02:51:52.831Z,18.00
2022-07-26T02:54:21.157Z,18.00
2022-07-26T02:56:49.155Z,18.10
2022-07-26T02:59:17.156Z,18.10
2022-07-26T03:01:45.441Z,18.10
2022-07-26T03:04:14.877Z,18.10
2022-07-26T03:06:42.877Z,18.00
2022-07-26T03:09:11.154Z,18.00
2022-07-26T03:11:39.251Z,18.00
2022-07-26T03:14:09.153Z,18.00
2022-07-26T03:16:37.696Z,18.00
2022-07-26T03:19:05.907Z,18.00
2022-07-26T03:21:35.307Z,18.00
2022-07-26T03:24:03.570Z,18.00
2022-07-26T03:26:31.612Z,18.10
2022-07-26T03:28:59.634Z,18.10
2022-07-26T03:31:27.836Z,18.00
2022-07-26T03:33:59.892Z,18.00
2022-07-26T03:36:31.215Z,18.00
2022-07-26T03:39:00.612Z,18.00
2022-07-26T03:41:31.587Z,17.90
2022-07-26T03:43:59.750Z,17.90
2022-07-26T03:46:27.932Z,17.90
2022-07-26T03:48:56.296Z,17.90
2022-07-26T03:51:24.843Z,17.80
2022-07-26T03:53:52.883Z,17.90
2022-07-26T03:56:31.911Z,17.90
2022-07-26T03:59:01.730Z,17.90
2022-07-26T04:01:30.907Z,17.90
2022-07-26T04:03:59.260Z,17.90
2022-07-26T04:06:27.384Z,17.90
2022-07-26T04:08:55.695Z,17.90
2022-07-26T04:11:26.521Z,17.90
2022-07-26T04:13:56.401Z,18.00
2022-07-26T04:16:24.832Z,18.00
2022-07-26T04:18:52.918Z,18.00
2022-07-26T04:21:21.185Z,18.00
2022-07-26T04:23:51.603Z,18.00
2022-07-26T04:26:20.554Z,18.00
2022-07-26T04:28:50.180Z,18.00
2022-07-26T04:31:18.472Z,18.00
2022-07-26T04:33:46.609Z,18.00
2022-07-26T04:36:14.732Z,18.00
2022-07-26T04:38:42.785Z,18.00
2022-07-26T04:41:11.038Z,18.00
2022-07-26T04:43:39.181Z,18.10
2022-07-26T04:46:08.755Z,18.00
2022-07-26T04:48:39.074Z,18.10
2022-07-26T04:51:07.483Z,18.10
2022-07-26T04:53:35.592Z,18.10
2022-07-26T04:56:03.682Z,18.10
2022-07-26T04:58:31.885Z,18.10
2022-07-26T05:01:16.247Z,18.10
2022-07-26T05:03:45.904Z,18.10
2022-07-26T05:06:13.952Z,18.10
2022-07-26T05:08:43.276Z,18.10
2022-07-26T05:11:11.539Z,18.10
2022-07-26T05:13:39.550Z,18.10
2022-07-26T05:16:11.884Z,18.10
2022-07-26T05:18:45.854Z,18.20
2022-07-26T05:21:19.588Z,18.30
2022-07-26T05:23:47.930Z,18.40
2022-07-26T05:26:16.282Z,18.40
2022-07-26T05:28:44.365Z,18.40
2022-07-26T05:31:12.768Z,18.50
2022-07-26T05:33:40.927Z,18.60
2022-07-26T05:36:09.506Z,18.60
2022-07-26T05:38:39.159Z,18.60
2022-07-26T05:41:07.794Z,18.70
2022-07-26T05:43:40.659Z,18.70
2022-07-26T05:46:11.735Z,18.80
2022-07-26T05:48:40.165Z,18.90
2022-07-26T05:51:08.549Z,18.90
2022-07-26T05:53:38.587Z,18.90
2022-07-26T05:56:07.669Z,18.90
2022-07-26T05:58:35.663Z,18.90
2022-07-26T06:01:03.678Z,19.00
2022-07-26T06:03:32.403Z,19.00
2022-07-26T06:06:00.765Z,19.10
2022-07-26T06:08:29.190Z,19.30
2022-07-26T06:10:58.753Z,19.30
2022-07-26T06:13:26.903Z,19.40
2022-07-26T06:15:54.971Z,19.30
2022-07-26T06:18:23.520Z,19.30
2022-07-26T06:20:53.087Z,19.30
2022-07-26T06:23:33.958Z,19.40
2022-07-26T06:26:05.188Z,19.60
2022-07-26T06:28:33.234Z,19.70
2022-07-26T06:31:01.465Z,19.70
2022-07-26T06:33:29.761Z,19.80
2022-07-26T06:35:57.777Z,19.70
2022-07-26T06:38:25.908Z,19.70
2022-07-26T06:40:54.359Z,19.50
2022-07-26T06:43:23.765Z,19.60
2022-07-26T06:45:52.049Z,19.80
2022-07-26T06:48:20.301Z,19.90
2022-07-26T06:50:48.411Z,19.90
2022-07-26T06:53:16.476Z,20.00
2022-07-26T06:55:45.255Z,20.00
2022-07-26T06:58:14.173Z,20.20
2022-07-26T07:00:44.149Z,20.30
2022-07-26T07:03:12.271Z,20.30
2022-07-26T07:05:40.502Z,20.30
2022-07-26T07:08:08.543Z,20.20
2022-07-26T07:10:38.524Z,20.20
2022-07-26T07:13:06.903Z,20.30
2022-07-26T07:15:35.085Z,20.10
2022-07-26T07:18:04.671Z,20.30
2022-07-26T07:20:34.374Z,20.60
2022-07-26T07:23:02.391Z,20.70
2022-07-26T07:25:31.173Z,20.60
2022-07-26T07:28:00.141Z,20.20
2022-07-26T07:30:28.720Z,19.90
2022-07-26T07:32:57.016Z,19.70
2022-07-26T07:35:31.912Z,19.90
2022-07-26T07:38:02.010Z,20.20
2022-07-26T07:40:30.384Z,20.60
2022-07-26T07:42:58.860Z,20.80
2022-07-26T07:45:27.136Z,20.90
2022-07-26T07:47:55.484Z,20.90
2022-07-26T07:50:28.274Z,21.00
2022-07-26T07:52:59.106Z,21.00
2022-07-26T07:55:46.081Z,21.00
2022-07-26T07:58:15.716Z,21.20
2022-07-26T08:00:45.647Z,21.10
2022-07-26T08:03:18.115Z,21.10
2022-07-26T08:05:47.110Z,21.10
2022-07-26T08:08:22.265Z,20.90
2022-07-26T08:10:52.366Z,20.90
2022-07-26T08:13:21.768Z,20.70
2022-07-26T08:15:50.481Z,20.50
2022-07-26T08:18:19.462Z,20.20
2022-07-26T08:20:51.228Z,20.10
2022-07-26T08:23:22.263Z,19.30
2022-07-26T08:25:57.137Z,18.80
2022-07-26T08:31:15.251Z,18.70
2022-07-26T08:33:46.447Z,18.70
2022-07-26T08:36:15.677Z,18.80
2022-07-26T08:38:47.627Z,18.90
2022-07-26T08:41:16.987Z,19.00
2022-07-26T08:43:52.662Z,19.10
2022-07-26T08:46:26.394Z,19.00
2022-07-26T08:48:55.526Z,19.00
2022-07-26T08:51:25.591Z,19.20
2022-07-26T08:54:04.248Z,19.20
2022-07-26T08:56:35.228Z,19.20
2022-07-26T08:59:07.860Z,19.20
2022-07-26T09:01:36.543Z,19.30
2022-07-26T09:04:30.983Z,19.50
2022-07-26T09:07:02.480Z,20.00
2022-07-26T09:09:32.569Z,20.40
2022-07-26T09:12:13.801Z,20.90
2022-07-26T09:14:41.800Z,20.90
2022-07-26T09:17:10.122Z,20.90
2022-07-26T09:19:38.219Z,20.90
2022-07-26T09:22:11.603Z,20.90
2022-07-26T09:24:43.163Z,21.00
2022-07-26T09:27:12.817Z,21.00
2022-07-26T09:29:45.894Z,21.00
2022-07-26T09:32:17.989Z,21.20
2022-07-26T09:34:52.583Z,21.30
2022-07-26T09:37:34.860Z,21.30
2022-07-26T09:40:07.745Z,21.30
2022-07-26T09:42:36.111Z,21.20
2022-07-26T09:45:15.806Z,21.10
2022-07-26T09:47:43.982Z,21.10
2022-07-26T09:50:15.090Z,21.20
2022-07-26T09:52:59.459Z,21.20
2022-07-26T09:55:36.377Z,21.10
2022-07-26T09:58:06.579Z,20.70
2022-07-26T10:00:35.408Z,20.50
2022-07-26T10:03:03.475Z,19.80
2022-07-26T10:05:33.166Z,19.10
2022-07-26T10:08:01.917Z,18.90
2022-07-26T10:10:37.119Z,18.90
2022-07-26T10:13:06.282Z,18.80
2022-07-26T10:15:39.125Z,18.70
2022-07-26T10:18:09.351Z,18.70
2022-07-26T10:20:48.392Z,18.70
2022-07-26T10:23:39.946Z,19.00
2022-07-26T10:26:12.235Z,19.10
2022-07-26T10:28:41.688Z,19.30
2022-07-26T10:31:30.588Z,19.40
2022-07-26T10:34:02.033Z,19.50
2022-07-26T10:36:36.980Z,19.60
2022-07-26T10:39:16.255Z,19.70
2022-07-26T10:41:48.253Z,20.00
2022-07-26T10:44:18.930Z,20.00
2022-07-26T10:47:03.022Z,20.20
2022-07-26T10:49:36.318Z,20.50
2022-07-26T10:52:10.164Z,20.60
2022-07-26T10:55:14.859Z,20.60
2022-07-26T10:57:49.386Z,20.50
2022-07-26T11:00:23.833Z,20.40
2022-07-26T11:02:57.116Z,20.20
2022-07-26T11:05:31.065Z,19.80
2022-07-26T11:08:08.447Z,19.30
2022-07-26T11:10:38.830Z,18.90
2022-07-26T11:13:11.491Z,18.50
2022-07-26T11:15:42.097Z,18.30
2022-07-26T11:18:12.702Z,18.30
2022-07-26T11:20:42.185Z,18.30
2022-07-26T11:23:28.559Z,18.40
2022-07-26T11:26:18.064Z,18.50
2022-07-26T11:28:49.918Z,18.60
2022-07-26T11:31:20.189Z,18.90
2022-07-26T11:33:51.127Z,19.00
2022-07-26T11:36:20.494Z,19.10
2022-07-26T11:38:51.530Z,19.20
2022-07-26T11:41:34.390Z,19.30
2022-07-26T11:44:05.450Z,19.40
2022-07-26T11:46:36.677Z,19.60
2022-07-26T11:49:07.226Z,19.70
2022-07-26T11:51:35.461Z,19.70
2022-07-26T11:54:04.973Z,19.70
2022-07-26T11:56:33.306Z,19.80
2022-07-26T11:59:02.256Z,19.90
2022-07-26T12:01:31.950Z,19.90
2022-07-26T12:04:00.018Z,20.00
2022-07-26T12:06:29.087Z,20.00
2022-07-26T12:08:59.118Z,20.10
2022-07-26T12:11:39.615Z,20.10
2022-07-26T12:14:07.870Z,20.30
2022-07-26T12:16:43.189Z,20.40
2022-07-26T12:19:24.630Z,20.50
2022-07-26T12:21:54.401Z,20.50
2022-07-26T12:24:42.150Z,20.50
2022-07-26T12:27:13.720Z,20.50
2022-07-26T12:29:44.560Z,20.60
2022-07-26T12:32:16.044Z,20.70
2022-07-26T12:34:57.831Z,20.70
2022-07-26T12:37:39.431Z,20.60
2022-07-26T12:40:11.616Z,20.60
2022-07-26T12:42:41.098Z,20.50
2022-07-26T12:45:12.188Z,20.40
2022-07-26T12:47:43.208Z,20.00
2022-07-26T12:50:13.519Z,19.40
2022-07-26T12:52:42.158Z,19.10
2022-07-26T12:55:13.962Z,18.70
2022-07-26T12:57:47.182Z,18.20
2022-07-26T13:00:17.415Z,18.00
2022-07-26T13:02:47.698Z,17.80
2022-07-26T13:05:16.233Z,17.90
2022-07-26T13:07:44.632Z,17.90
2022-07-26T13:10:32.661Z,18.00
2022-07-26T13:13:01.583Z,18.00
2022-07-26T13:15:36.138Z,18.10
2022-07-26T13:18:08.313Z,18.10
2022-07-26T13:20:38.580Z,18.20
2022-07-26T13:23:09.737Z,18.30
2022-07-26T13:25:40.712Z,18.40
2022-07-26T13:28:09.550Z,18.50
2022-07-26T13:30:38.855Z,18.70
2022-07-26T13:33:08.463Z,18.80
2022-07-26T13:35:38.828Z,18.90
2022-07-26T13:38:07.487Z,19.00
2022-07-26T13:40:36.086Z,19.10
2022-07-26T13:43:04.487Z,19.20
2022-07-26T13:45:32.618Z,19.20
2022-07-26T13:48:00.693Z,19.20
2022-07-26T13:50:30.103Z,19.30
2022-07-26T13:52:58.284Z,19.20
2022-07-26T13:55:26.591Z,19.30
2022-07-26T13:57:56.209Z,19.30
2022-07-26T14:00:26.262Z,19.40
2022-07-26T14:02:54.573Z,19.40
2022-07-26T14:05:22.886Z,19.50
2022-07-26T14:07:52.958Z,19.50
2022-07-26T14:10:21.605Z,19.40
2022-07-26T14:12:50.013Z,19.40
2022-07-26T14:15:22.739Z,19.40
2022-07-26T14:17:52.029Z,19.60
2022-07-26T14:20:21.026Z,19.70
2022-07-26T14:22:49.251Z,19.80
2022-07-26T14:25:18.694Z,19.70
2022-07-26T14:27:47.133Z,19.70
2022-07-26T14:30:15.703Z,19.60
2022-07-26T14:32:43.814Z,19.60
2022-07-26T14:35:13.594Z,19.50
2022-07-26T14:37:45.081Z,19.50
2022-07-26T14:40:16.949Z,19.60
2022-07-26T14:42:47.283Z,19.70
2022-07-26T14:45:16.512Z,19.80
2022-07-26T14:47:45.011Z,19.80
2022-07-26T14:50:14.386Z,19.90
2022-07-26T14:52:44.597Z,20.00
2022-07-26T14:55:13.715Z,20.20
2022-07-26T14:57:42.799Z,20.40
2022-07-26T15:00:14.570Z,20.60
2022-07-26T15:02:44.560Z,20.70
2022-07-26T15:05:13.801Z,20.70
2022-07-26T15:07:43.167Z,20.80
2022-07-26T15:10:13.711Z,20.80
2022-07-26T15:12:43.029Z,20.80
2022-07-26T15:15:13.267Z,20.70
2022-07-26T15:17:41.321Z,20.70
2022-07-26T15:20:10.103Z,20.50
2022-07-26T15:22:38.242Z,20.50
2022-07-26T15:25:07.092Z,20.70
2022-07-26T15:27:35.365Z,20.80
2022-07-26T15:30:06.940Z,20.80
2022-07-26T15:32:39.744Z,20.90
2022-07-26T15:35:14.086Z,20.90
2022-07-26T15:37:43.742Z,20.70
2022-07-26T15:40:13.332Z,20.50
2022-07-26T15:42:44.127Z,20.30
2022-07-26T15:45:13.222Z,20.30
2022-07-26T15:47:54.767Z,20.20
2022-07-26T15:50:24.220Z,20.30
2022-07-26T15:52:52.801Z,20.30
2022-07-26T15:55:21.289Z,20.40
2022-07-26T15:57:49.428Z,20.40
2022-07-26T16:00:18.320Z,20.40
2022-07-26T16:02:48.055Z,20.40
2022-07-26T16:05:16.174Z,20.40
2022-07-26T16:07:45.443Z,20.40
2022-07-26T16:10:14.916Z,20.50
2022-07-26T16:12:43.516Z,20.50
2022-07-26T16:15:13.071Z,20.50
2022-07-26T16:17:41.542Z,20.50
2022-07-26T16:20:11.400Z,20.60
2022-07-26T16:22:42.008Z,20.60
2022-07-26T16:25:13.540Z,20.70
2022-07-26T16:27:42.747Z,20.80
2022-07-26T16:30:12.153Z,20.90
2022-07-26T16:32:40.256Z,21.00
2022-07-26T16:35:11.421Z,21.00
2022-07-26T16:37:39.895Z,20.80
2022-07-26T16:40:09.394Z,20.60
2022-07-26T16:42:37.569Z,20.60
2022-07-26T16:45:06.442Z,20.50
2022-07-26T16:47:34.512Z,20.50
2022-07-26T16:50:02.726Z,20.50
2022-07-26T16:52:32.195Z,20.50
2022-07-26T16:55:00.321Z,20.40
2022-07-26T16:57:28.520Z,20.40
2022-07-26T16:59:56.703Z,20.20
2022-07-26T17:02:24.871Z,20.20
2022-07-26T17:04:56.079Z,20.10
2022-07-26T17:07:25.771Z,20.00
2022-07-26T17:09:55.873Z,20.00
2022-07-26T17:12:25.125Z,19.90
2022-07-26T17:14:53.464Z,19.80
2022-07-26T17:17:21.840Z,19.80
2022-07-26T17:19:49.957Z,19.80
2022-07-26T17:22:18.869Z,19.70
2022-07-26T17:24:47.368Z,19.70
2022-07-26T17:27:17.352Z,19.70
2022-07-26T17:29:45.809Z,19.70
2022-07-26T17:32:14.010Z,19.70
2022-07-26T17:34:42.746Z,19.60
2022-07-26T17:37:12.382Z,19.60
2022-07-26T17:39:51.538Z,19.60
2022-07-26T17:42:22.583Z,19.70
2022-07-26T17:44:50.725Z,19.70
2022-07-26T17:47:28.768Z,19.70
2022-07-26T17:50:13.972Z,19.60
2022-07-26T17:52:48.182Z,19.50
2022-07-26T17:55:16.363Z,19.40
2022-07-26T17:57:46.050Z,19.40
2022-07-26T18:00:15.271Z,19.30
2022-07-26T18:02:43.516Z,19.20
2022-07-26T18:05:12.170Z,19.20
2022-07-26T18:07:40.750Z,19.20
2022-07-26T18:10:10.070Z,19.20
2022-07-26T18:12:38.315Z,19.20
2022-07-26T18:15:09.477Z,19.10
2022-07-26T18:17:38.003Z,19.10
2022-07-26T18:20:07.199Z,19.00
2022-07-26T18:22:35.476Z,19.00
2022-07-26T18:25:03.971Z,19.00
2022-07-26T18:27:32.121Z,19.00
2022-07-26T18:30:00.786Z,19.00
2022-07-26T18:32:30.513Z,18.90
2022-07-26T18:34:58.827Z,18.80
2022-07-26T18:37:26.953Z,18.80
2022-07-26T18:39:57.741Z,18.80
2022-07-26T18:42:26.349Z,18.90
2022-07-26T18:44:54.503Z,18.80
2022-07-26T18:47:22.625Z,18.90
2022-07-26T18:49:52.130Z,18.90
2022-07-26T18:52:31.510Z,18.90
2022-07-26T18:55:01.756Z,18.90
2022-07-26T18:57:29.805Z,18.80
2022-07-26T18:59:57.824Z,18.80
2022-07-26T19:02:26.191Z,18.80
2022-07-26T19:04:55.621Z,18.70
2022-07-26T19:07:23.682Z,18.70
2022-07-26T19:09:57.837Z,18.60
2022-07-26T19:12:27.107Z,18.50
2022-07-26T19:14:55.968Z,18.40
2022-07-26T19:17:24.116Z,18.30
2022-07-26T19:19:52.187Z,18.30
2022-07-26T19:22:22.465Z,18.20
2022-07-26T19:24:50.518Z,18.20
2022-07-26T19:27:18.869Z,18.10
2022-07-26T19:29:47.244Z,18.10
2022-07-26T19:32:15.528Z,18.10
2022-07-26T19:34:43.671Z,18.10
2022-07-26T19:37:12.278Z,18.10
2022-07-26T19:39:42.010Z,18.00
2022-07-26T19:42:10.089Z,18.00
2022-07-26T19:44:38.171Z,17.90
2022-07-26T19:47:06.495Z,17.90
2022-07-26T19:49:34.521Z,17.80
2022-07-26T19:52:02.633Z,17.80
2022-07-26T19:54:30.960Z,17.80
2022-07-26T19:57:00.584Z,17.80
2022-07-26T19:59:28.787Z,17.70
2022-07-26T20:01:58.545Z,17.70
2022-07-26T20:04:26.857Z,17.70
2022-07-26T20:06:56.558Z,17.70
2022-07-26T20:09:26.913Z,17.70
2022-07-26T20:11:54.950Z,17.60
2022-07-26T20:14:24.614Z,17.60
2022-07-26T20:16:56.323Z,17.60
2022-07-26T20:19:28.215Z,17.50
2022-07-26T20:21:56.719Z,17.50
2022-07-26T20:24:24.730Z,17.40
2022-07-26T20:26:52.819Z,17.40
2022-07-26T20:29:21.045Z,17.40
2022-07-26T20:31:50.418Z,17.40
2022-07-26T20:34:18.613Z,17.30
2022-07-26T20:36:46.878Z,17.30
2022-07-26T20:39:15.563Z,17.20
2022-07-26T20:41:43.716Z,17.20
2022-07-26T20:44:14.246Z,17.20
2022-07-26T20:46:42.673Z,17.10
2022-07-26T20:49:12.798Z,17.00
2022-07-26T20:51:41.159Z,17.00
2022-07-26T20:54:10.280Z,17.00
2022-07-26T20:56:39.029Z,16.90
2022-07-26T20:59:07.451Z,17.00
2022-07-26T21:01:36.156Z,16.90
2022-07-26T21:04:04.914Z,16.80
2022-07-26T21:06:34.695Z,16.90
2022-07-26T21:09:09.053Z,16.90
2022-07-26T21:11:38.900Z,16.80
2022-07-26T21:14:07.404Z,16.80
2022-07-26T21:16:35.636Z,16.70
2022-07-26T21:19:05.362Z,16.70
2022-07-26T21:21:37.044Z,16.70
2022-07-26T21:24:06.500Z,16.70
2022-07-26T21:26:35.045Z,16.70
2022-07-26T21:29:03.119Z,16.60
2022-07-26T21:31:31.524Z,16.60
2022-07-26T21:33:59.970Z,16.60
2022-07-26T21:36:28.078Z,16.60
2022-07-26T21:38:57.558Z,16.60
2022-07-26T21:41:25.889Z,16.50
2022-07-26T21:43:53.904Z,16.50
2022-07-26T21:46:22.187Z,16.50
2022-07-26T21:48:50.567Z,16.40
2022-07-26T21:51:19.094Z,16.40
2022-07-26T21:53:47.206Z,16.40
2022-07-26T21:56:16.919Z,16.30
2022-07-26T21:58:45.244Z,16.30
2022-07-26T22:01:15.565Z,16.30
2022-07-26T22:03:44.044Z,16.30
2022-07-26T22:06:12.998Z,16.20
2022-07-26T22:08:41.187Z,16.10
2022-07-26T22:11:09.289Z,16.10
2022-07-26T22:13:39.364Z,16.10
2022-07-26T22:16:08.238Z,16.10
2022-07-26T22:18:36.397Z,16.10
2022-07-26T22:21:04.707Z,16.00
2022-07-26T22:23:32.828Z,16.00
2022-07-26T22:26:03.185Z,16.00
2022-07-26T22:28:31.984Z,15.90
2022-07-26T22:31:02.475Z,15.80
2022-07-26T22:33:30.497Z,15.80
2022-07-26T22:35:58.730Z,15.70
2022-07-26T22:38:26.832Z,15.70
2022-07-26T22:40:54.876Z,15.70
2022-07-26T22:43:22.968Z,15.60
2022-07-26T22:45:51.501Z,15.50
2022-07-26T22:48:21.044Z,15.50
2022-07-26T22:50:49.043Z,15.50
2022-07-26T22:53:17.426Z,15.40
2022-07-26T22:55:45.522Z,15.30
2022-07-26T22:58:13.594Z,15.30
2022-07-26T23:00:42.166Z,15.20
2022-07-26T23:03:20.115Z,15.20
2022-07-26T23:05:52.327Z,15.20
2022-07-26T23:11:08.913Z,15.10
2022-07-26T23:13:36.991Z,15.00
2022-07-26T23:16:05.524Z,15.00
2022-07-26T23:18:35.098Z,14.90
2022-07-26T23:21:04.727Z,14.90
2022-07-26T23:23:33.104Z,14.90
2022-07-26T23:26:02.122Z,14.90
2022-07-26T23:28:37.117Z,14.80
2022-07-26T23:31:08.069Z,14.80
2022-07-26T23:33:51.585Z,14.80
2022-07-26T23:36:23.961Z,14.70
2022-07-26T23:38:52.241Z,14.70
2022-07-26T23:41:20.591Z,14.70
2022-07-26T23:43:48.825Z,14.70
2022-07-26T23:46:17.129Z,14.50
2022-07-26T23:48:45.759Z,14.50
2022-07-26T23:51:14.356Z,14.40
2022-07-26T23:53:44.058Z,14.40
2022-07-26T23:56:12.194Z,14.40
2022-07-26T23:58:40.391Z,14.40
